createdAt,value
2024-04-21T00:01:22.563Z,102266.31
2024-04-21T00:03:49.758Z,102279.91
2024-04-21T00:06:16.526Z,102278.38
2024-04-21T00:08:43.162Z,102262.81
2024-04-21T00:11:10.262Z,102266.81
2024-04-21T00:13:37.046Z,102258.47
2024-04-21T00:16:04.255Z,102253.63
2024-04-21T00:18:30.980Z,102242.28
2024-04-21T00:20:57.624Z,102232.84
2024-04-21T00:23:24.273Z,102226.84
2024-04-21T00:26:00.920Z,102234.75
2024-04-21T00:28:31.226Z,102236.22
2024-04-21T00:30:58.315Z,102230.16
2024-04-21T00:33:25.311Z,102235.81
2024-04-21T00:35:51.991Z,102229.78
2024-04-21T00:38:18.636Z,102223.00
2024-04-21T00:40:45.308Z,102226.78
2024-04-21T00:43:12.063Z,102226.41
2024-04-21T00:45:42.899Z,102215.06
2024-04-21T00:48:10.087Z,102219.22
2024-04-21T00:50:40.846Z,102220.00
2024-04-21T00:53:10.979Z,102222.59
2024-04-21T00:55:39.250Z,102218.84
2024-04-21T00:58:08.134Z,102204.16
2024-04-21T01:00:36.331Z,102195.84
2024-04-21T01:03:03.566Z,102204.16
2024-04-21T01:05:30.278Z,102191.69
2024-04-21T01:07:57.134Z,102186.78
2024-04-21T01:10:23.758Z,102178.88
2024-04-21T01:12:50.486Z,102178.88
2024-04-21T01:15:17.139Z,102167.91
2024-04-21T01:17:43.884Z,102161.88
2024-04-21T01:20:13.833Z,102164.91
2024-04-21T01:22:47.001Z,102167.91
2024-04-21T01:25:13.974Z,102166.03
2024-04-21T01:27:40.787Z,102165.66
2024-04-21T01:30:08.044Z,102164.53
2024-04-21T01:32:34.767Z,102157.72
2024-04-21T01:35:01.551Z,102152.06
2024-04-21T01:37:29.471Z,102147.91
2024-04-21T01:39:56.308Z,102138.41
2024-04-21T01:42:22.946Z,102137.28
2024-04-21T01:44:49.549Z,102134.66
2024-04-21T01:47:16.182Z,102130.84
2024-04-21T01:49:42.847Z,102118.41
2024-04-21T01:52:09.544Z,102111.63
2024-04-21T01:54:36.206Z,102105.56
2024-04-21T01:57:03.943Z,102099.16
2024-04-21T01:59:30.559Z,102098.41
2024-04-21T02:01:57.262Z,102100.25
2024-04-21T02:04:24.026Z,102084.03
2024-04-21T02:06:51.857Z,102086.66
2024-04-21T02:09:18.576Z,102076.44
2024-04-21T02:11:45.443Z,102070.41
2024-04-21T02:14:12.035Z,102058.34
2024-04-21T02:16:38.611Z,102059.88
2024-04-21T02:19:10.119Z,102047.06
2024-04-21T02:21:37.082Z,102046.28
2024-04-21T02:24:03.918Z,102045.91
2024-04-21T02:26:30.520Z,102032.34
2024-04-21T02:28:57.170Z,102030.84
2024-04-21T02:31:23.846Z,102030.84
2024-04-21T02:33:50.568Z,102030.09
2024-04-21T02:36:18.087Z,102027.06
2024-04-21T02:38:44.809Z,102019.50
2024-04-21T02:41:11.432Z,102019.53
2024-04-21T02:43:38.149Z,102024.44
2024-04-21T02:46:06.222Z,102033.91
2024-04-21T02:48:33.703Z,102044.81
2024-04-21T02:51:00.949Z,102053.50
2024-04-21T02:53:27.628Z,102075.28
2024-04-21T02:55:54.259Z,102069.97
2024-04-21T02:58:20.990Z,102066.50
2024-04-21T03:00:47.736Z,102052.13
2024-04-21T03:03:14.441Z,102034.47
2024-04-21T03:05:41.054Z,102029.56
2024-04-21T03:08:08.059Z,102026.53
2024-04-21T03:10:34.653Z,102029.94
2024-04-21T03:13:01.730Z,102025.03
2024-04-21T03:15:28.427Z,102033.69
2024-04-21T03:17:55.117Z,102028.00
2024-04-21T03:20:21.762Z,102033.97
2024-04-21T03:22:48.390Z,102032.06
2024-04-21T03:25:15.231Z,102029.00
2024-04-21T03:27:41.887Z,102026.69
2024-04-21T03:30:08.891Z,102026.63
2024-04-21T03:32:35.599Z,102023.63
2024-04-21T03:35:02.403Z,102023.63
2024-04-21T03:37:29.015Z,102027.00
2024-04-21T03:39:55.999Z,102022.09
2024-04-21T03:42:22.652Z,102025.91
2024-04-21T03:44:49.293Z,102027.38
2024-04-21T03:47:15.920Z,102020.97
2024-04-21T03:49:42.563Z,102015.66
2024-04-21T03:52:09.186Z,102017.88
2024-04-21T03:54:35.845Z,102022.81
2024-04-21T03:57:06.232Z,102015.25
2024-04-21T03:59:33.472Z,102024.31
2024-04-21T04:02:01.251Z,102025.09
2024-04-21T04:04:28.340Z,102018.72
2024-04-21T04:06:55.204Z,102018.34
2024-04-21T04:09:21.915Z,102018.00
2024-04-21T04:11:48.636Z,102015.00
2024-04-21T04:14:15.566Z,102005.97
2024-04-21T04:16:42.552Z,102010.91
2024-04-21T04:19:10.649Z,102016.16
2024-04-21T04:21:37.490Z,102017.69
2024-04-21T04:24:04.184Z,102020.28
2024-04-21T04:26:30.888Z,102021.78
2024-04-21T04:28:57.596Z,102025.50
2024-04-21T04:31:24.363Z,102024.75
2024-04-21T04:33:51.200Z,102027.38
2024-04-21T04:36:18.012Z,102031.13
2024-04-21T04:38:44.682Z,102025.06
2024-04-21T04:41:11.298Z,102033.34
2024-04-21T04:43:38.084Z,102031.44
2024-04-21T04:46:05.344Z,102040.84
2024-04-21T04:48:34.952Z,102048.41
2024-04-21T04:51:02.123Z,102043.84
2024-04-21T04:53:28.782Z,102055.13
2024-04-21T04:55:55.468Z,102051.31
2024-04-21T04:58:22.340Z,102066.38
2024-04-21T05:00:49.045Z,102073.13
2024-04-21T05:03:15.757Z,102078.00
2024-04-21T05:05:42.499Z,102088.13
2024-04-21T05:08:09.315Z,102084.38
2024-04-21T05:10:36.033Z,102099.47
2024-04-21T05:13:02.677Z,102106.63
2024-04-21T05:15:29.409Z,102113.75
2024-04-21T05:17:56.082Z,102118.66
2024-04-21T05:20:23.298Z,102125.06
2024-04-21T05:22:51.057Z,102134.84
2024-04-21T05:25:17.672Z,102145.75
2024-04-21T05:27:44.286Z,102145.41
2024-04-21T05:30:11.277Z,102153.66
2024-04-21T05:32:38.124Z,102161.56
2024-04-21T05:35:05.111Z,102173.63
2024-04-21T05:37:31.705Z,102172.50
2024-04-21T05:39:58.392Z,102183.03
2024-04-21T05:42:25.004Z,102188.72
2024-04-21T05:44:52.560Z,102191.31
2024-04-21T05:47:19.464Z,102198.84
2024-04-21T05:49:46.291Z,102207.88
2024-04-21T05:52:15.867Z,102207.47
2024-04-21T05:54:42.867Z,102212.78
2024-04-21T05:57:09.696Z,102218.81
2024-04-21T05:59:36.312Z,102223.72
2024-04-21T06:02:03.299Z,102229.84
2024-04-21T06:04:32.539Z,102242.31
2024-04-21T06:06:59.770Z,102243.84
2024-04-21T06:09:27.315Z,102252.88
2024-04-21T06:11:54.282Z,102255.44
2024-04-21T06:14:21.207Z,102257.72
2024-04-21T06:16:47.889Z,102266.81
2024-04-21T06:19:14.737Z,102265.63
2024-04-21T06:21:41.633Z,102283.78
2024-04-21T06:24:08.359Z,102281.16
2024-04-21T06:26:35.390Z,102286.81
2024-04-21T06:29:02.105Z,102301.91
2024-04-21T06:31:28.850Z,102307.97
2024-04-21T06:33:55.566Z,102310.19
2024-04-21T06:36:22.347Z,102313.59
2024-04-21T06:38:48.990Z,102328.63
2024-04-21T06:41:15.676Z,102321.50
2024-04-21T06:43:42.291Z,102332.50
2024-04-21T06:46:09.008Z,102341.25
2024-04-21T06:48:35.910Z,102340.53
2024-04-21T06:51:02.617Z,102343.91
2024-04-21T06:53:34.880Z,102361.19
2024-04-21T06:56:02.300Z,102365.00
2024-04-21T06:58:28.947Z,102371.06
2024-04-21T07:00:55.897Z,102370.31
2024-04-21T07:03:22.711Z,102376.75
2024-04-21T07:05:49.391Z,102380.16
2024-04-21T07:08:16.038Z,102381.38
2024-04-21T07:10:43.186Z,102383.31
2024-04-21T07:13:09.852Z,102384.50
2024-04-21T07:15:37.857Z,102387.97
2024-04-21T07:18:04.972Z,102398.59
2024-04-21T07:20:31.882Z,102407.72
2024-04-21T07:22:58.490Z,102392.78
2024-04-21T07:25:26.079Z,102401.19
2024-04-21T07:27:53.901Z,102406.88
2024-04-21T07:30:20.748Z,102408.25
2024-04-21T07:32:47.656Z,102398.16
2024-04-21T07:35:14.431Z,102420.09
2024-04-21T07:37:41.113Z,102407.38
2024-04-21T07:40:08.456Z,102415.84
2024-04-21T07:42:35.106Z,102423.44
2024-04-21T07:45:01.851Z,102429.53
2024-04-21T07:47:29.235Z,102437.84
2024-04-21T07:49:55.918Z,102450.72
2024-04-21T07:52:22.541Z,102462.53
2024-04-21T07:54:50.349Z,102453.06
2024-04-21T07:57:17.292Z,102467.84
2024-04-21T07:59:44.156Z,102465.59
2024-04-21T08:02:10.946Z,102475.81
2024-04-21T08:04:37.642Z,102472.41
2024-04-21T08:07:05.058Z,102481.47
2024-04-21T08:09:32.076Z,102470.88
2024-04-21T08:11:59.159Z,102480.34
2024-04-21T08:14:25.822Z,102484.47
2024-04-21T08:16:52.584Z,102490.13
2024-04-21T08:19:19.324Z,102488.59
2024-04-21T08:21:47.496Z,102495.72
2024-04-21T08:24:14.279Z,102494.19
2024-04-21T08:26:43.323Z,102496.47
2024-04-21T08:29:09.902Z,102493.75
2024-04-21T08:31:36.556Z,102496.50
2024-04-21T08:34:04.105Z,102490.59
2024-04-21T08:36:30.744Z,102514.03
2024-04-21T08:38:57.518Z,102496.50
2024-04-21T08:41:27.332Z,102499.13
2024-04-21T08:43:57.528Z,102503.38
2024-04-21T08:46:24.982Z,102505.09
2024-04-21T08:48:51.962Z,102508.78
2024-04-21T08:51:18.648Z,102513.09
2024-04-21T08:53:45.445Z,102499.91
2024-04-21T08:56:22.875Z,102515.31
2024-04-21T08:58:51.966Z,102513.19
2024-04-21T09:01:20.114Z,102509.44
2024-04-21T09:03:52.425Z,102517.44
2024-04-21T09:06:25.375Z,102520.09
2024-04-21T09:08:55.959Z,102516.72
2024-04-21T09:11:23.326Z,102522.41
2024-04-21T09:13:50.644Z,102521.63
2024-04-21T09:16:17.360Z,102524.28
2024-04-21T09:18:44.166Z,102532.19
2024-04-21T09:21:11.523Z,102529.22
2024-04-21T09:23:41.671Z,102531.88
2024-04-21T09:26:09.326Z,102536.81
2024-04-21T09:28:36.201Z,102528.84
2024-04-21T09:31:02.996Z,102534.16
2024-04-21T09:33:30.437Z,102539.84
2024-04-21T09:36:00.227Z,102531.81
2024-04-21T09:38:26.956Z,102536.19
2024-04-21T09:40:56.300Z,102535.41
2024-04-21T09:43:23.995Z,102543.84
2024-04-21T09:45:51.685Z,102533.25
2024-04-21T09:48:19.965Z,102552.09
2024-04-21T09:50:47.287Z,102547.44
2024-04-21T09:53:15.274Z,102546.03
2024-04-21T09:55:48.326Z,102552.16
2024-04-21T09:58:16.641Z,102553.59
2024-04-21T10:00:48.877Z,102556.72
2024-04-21T10:03:17.164Z,102558.19
2024-04-21T10:05:44.657Z,102559.97
2024-04-21T10:08:12.331Z,102564.00
2024-04-21T10:10:41.074Z,102570.19
2024-04-21T10:13:08.468Z,102570.66
2024-04-21T10:15:36.205Z,102570.31
2024-04-21T10:18:03.695Z,102567.63
2024-04-21T10:20:35.744Z,102569.09
2024-04-21T10:23:10.634Z,102575.28
2024-04-21T10:25:39.238Z,102564.66
2024-04-21T10:28:07.479Z,102561.97
2024-04-21T10:30:35.175Z,102560.78
2024-04-21T10:33:04.077Z,102561.59
2024-04-21T10:35:37.913Z,102563.66
2024-04-21T10:38:09.062Z,102561.50
2024-04-21T10:40:38.864Z,102569.31
2024-04-21T10:43:06.461Z,102574.91
2024-04-21T10:45:33.794Z,102564.56
2024-04-21T10:48:01.572Z,102564.31
2024-04-21T10:50:28.393Z,102562.53
2024-04-21T10:52:55.847Z,102559.31
2024-04-21T10:55:22.973Z,102563.69
2024-04-21T10:57:49.957Z,102564.53
2024-04-21T11:00:16.642Z,102551.44
2024-04-21T11:02:43.441Z,102554.38
2024-04-21T11:05:10.854Z,102559.78
2024-04-21T11:07:37.953Z,102563.13
2024-04-21T11:10:05.465Z,102567.03
2024-04-21T11:12:33.563Z,102564.47
2024-04-21T11:15:01.274Z,102571.88
2024-04-21T11:17:28.173Z,102571.22
2024-04-21T11:19:55.108Z,102567.13
2024-04-21T11:22:22.258Z,102570.22
2024-04-21T11:24:49.091Z,102575.38
2024-04-21T11:27:17.985Z,102574.19
2024-04-21T11:29:47.795Z,102579.41
2024-04-21T11:32:16.210Z,102580.59
2024-04-21T11:34:45.152Z,102589.44
2024-04-21T11:37:22.641Z,102584.28
2024-04-21T11:39:49.554Z,102580.44
2024-04-21T11:42:16.249Z,102579.22
2024-04-21T11:44:43.292Z,102582.78
2024-04-21T11:47:09.900Z,102584.88
2024-04-21T11:49:36.637Z,102586.19
2024-04-21T11:52:03.383Z,102589.38
2024-04-21T11:54:29.998Z,102579.97
2024-04-21T11:56:56.646Z,102589.19
2024-04-21T11:59:24.217Z,102586.94
2024-04-21T12:01:51.175Z,102589.19
2024-04-21T12:04:18.068Z,102579.56
2024-04-21T12:06:44.837Z,102584.88
2024-04-21T12:09:11.524Z,102591.50
2024-04-21T12:11:38.279Z,102587.38
2024-04-21T12:14:29.344Z,102588.22
2024-04-21T12:16:56.603Z,102598.88
2024-04-21T12:19:23.393Z,102590.69
2024-04-21T12:21:50.498Z,102591.66
2024-04-21T12:24:17.093Z,102581.47
2024-04-21T12:26:43.690Z,102586.13
2024-04-21T12:29:10.287Z,102582.50
2024-04-21T12:31:37.038Z,102578.78
2024-04-21T12:34:03.804Z,102590.25
2024-04-21T12:36:30.484Z,102580.63
2024-04-21T12:38:57.107Z,102593.03
2024-04-21T12:41:23.787Z,102591.38
2024-04-21T12:43:50.384Z,102587.72
2024-04-21T12:46:17.084Z,102583.63
2024-04-21T12:48:43.812Z,102577.91
2024-04-21T12:51:10.500Z,102584.66
2024-04-21T12:53:37.202Z,102582.22
2024-04-21T12:56:04.017Z,102576.50
2024-04-21T12:58:30.710Z,102574.78
2024-04-21T13:00:57.517Z,102569.44
2024-04-21T13:03:24.326Z,102578.59
2024-04-21T13:05:50.946Z,102574.91
2024-04-21T13:08:17.586Z,102569.63
2024-04-21T13:10:44.261Z,102563.56
2024-04-21T13:13:10.974Z,102570.88
2024-04-21T13:15:37.794Z,102567.47
2024-04-21T13:18:04.625Z,102576.75
2024-04-21T13:20:32.131Z,102571.91
2024-04-21T13:22:59.740Z,102576.84
2024-04-21T13:25:26.574Z,102574.53
2024-04-21T13:27:53.272Z,102571.38
2024-04-21T13:30:19.911Z,102569.88
2024-04-21T13:32:46.714Z,102564.28
2024-04-21T13:35:13.392Z,102560.00
2024-04-21T13:37:42.923Z,102570.09
2024-04-21T13:40:10.555Z,102568.41
2024-04-21T13:42:40.131Z,102588.88
2024-04-21T13:45:08.413Z,102591.38
2024-04-21T13:47:35.136Z,102597.00
2024-04-21T13:50:02.024Z,102593.84
2024-04-21T13:52:28.957Z,102605.38
2024-04-21T13:54:55.739Z,102606.56
2024-04-21T13:57:23.097Z,102606.63
2024-04-21T13:59:50.028Z,102606.66
2024-04-21T14:02:17.451Z,102596.13
2024-04-21T14:04:44.312Z,102597.69
2024-04-21T14:07:11.259Z,102606.03
2024-04-21T14:09:38.594Z,102592.00
2024-04-21T14:12:05.656Z,102591.56
2024-04-21T14:14:32.402Z,102591.88
2024-04-21T14:16:59.240Z,102584.59
2024-04-21T14:19:25.939Z,102586.75
2024-04-21T14:21:52.633Z,102585.56
2024-04-21T14:24:19.304Z,102582.09
2024-04-21T14:26:45.947Z,102580.56
2024-04-21T14:29:12.556Z,102577.50
2024-04-21T14:31:39.359Z,102581.66
2024-04-21T14:34:06.407Z,102581.31
2024-04-21T14:36:34.913Z,102584.34
2024-04-21T14:39:02.255Z,102581.34
2024-04-21T14:41:28.962Z,102571.44
2024-04-21T14:43:56.674Z,102572.94
2024-04-21T14:46:24.742Z,102574.84
2024-04-21T14:48:51.542Z,102572.94
2024-04-21T14:51:18.153Z,102572.56
2024-04-21T14:53:44.869Z,102566.09
2024-04-21T14:56:13.755Z,102563.81
2024-04-21T14:58:40.506Z,102564.94
2024-04-21T15:01:07.335Z,102564.97
2024-04-21T15:03:36.063Z,102571.78
2024-04-21T15:06:02.864Z,102575.19
2024-04-21T15:08:29.930Z,102567.16
2024-04-21T15:10:56.815Z,102576.25
2024-04-21T15:13:23.496Z,102582.38
2024-04-21T15:15:51.291Z,102578.59
2024-04-21T15:18:18.147Z,102581.66
2024-04-21T15:20:48.404Z,102584.25
2024-04-21T15:23:15.302Z,102585.00
2024-04-21T15:25:44.443Z,102585.75
2024-04-21T15:28:11.812Z,102597.56
2024-04-21T15:30:38.520Z,102612.41
2024-04-21T15:33:05.634Z,102616.41
2024-04-21T15:35:32.471Z,102634.81
2024-04-21T15:37:59.099Z,102636.81
2024-04-21T15:40:25.812Z,102640.59
2024-04-21T15:42:52.493Z,102647.09
2024-04-21T15:45:19.490Z,102659.28
2024-04-21T15:47:46.257Z,102647.91
2024-04-21T15:50:15.784Z,102670.69
2024-04-21T15:52:42.691Z,102661.56
2024-04-21T15:55:13.144Z,102667.22
2024-04-21T15:57:40.083Z,102673.25
2024-04-21T16:00:09.189Z,102673.25
2024-04-21T16:02:37.650Z,102671.38
2024-04-21T16:05:05.191Z,102669.09
2024-04-21T16:07:33.265Z,102666.06
2024-04-21T16:10:00.399Z,102669.88
2024-04-21T16:12:27.087Z,102655.09
2024-04-21T16:14:53.791Z,102652.41
2024-04-21T16:17:23.211Z,102645.59
2024-04-21T16:19:49.990Z,102644.13
2024-04-21T16:22:16.669Z,102645.25
2024-04-21T16:24:43.375Z,102650.56
2024-04-21T16:27:10.097Z,102649.06
2024-04-21T16:29:36.774Z,102644.88
2024-04-21T16:32:05.045Z,102641.47
2024-04-21T16:34:32.396Z,102636.91
2024-04-21T16:36:59.500Z,102633.16
2024-04-21T16:39:26.594Z,102633.91
2024-04-21T16:41:53.832Z,102633.13
2024-04-21T16:44:21.086Z,102634.66
2024-04-21T16:46:50.281Z,102633.53
2024-04-21T16:49:27.924Z,102636.56
2024-04-21T16:52:01.075Z,102637.66
2024-04-21T16:54:28.446Z,102641.06
2024-04-21T16:59:37.731Z,102639.56
2024-04-21T17:02:04.787Z,102645.25
2024-04-21T17:04:31.801Z,102649.78
2024-04-21T17:07:02.054Z,102642.59
2024-04-21T17:09:28.981Z,102641.44
2024-04-21T17:11:55.921Z,102649.03
2024-04-21T17:14:23.111Z,102642.94
2024-04-21T17:16:49.978Z,102648.66
2024-04-21T17:19:16.720Z,102641.81
2024-04-21T17:21:43.310Z,102650.53
2024-04-21T17:24:09.967Z,102650.91
2024-04-21T17:26:36.595Z,102653.56
2024-04-21T17:29:03.274Z,102664.19
2024-04-21T17:31:30.063Z,102652.84
2024-04-21T17:33:57.002Z,102652.44
2024-04-21T17:36:23.587Z,102657.78
2024-04-21T17:38:50.244Z,102661.56
2024-04-21T17:41:17.517Z,102661.56
2024-04-21T17:43:44.290Z,102656.25
2024-04-21T17:46:10.926Z,102644.88
2024-04-21T17:48:38.319Z,102659.69
2024-04-21T17:51:04.995Z,102660.81
2024-04-21T17:53:31.580Z,102658.13
2024-04-21T17:55:58.245Z,102657.34
2024-04-21T17:58:25.022Z,102660.00
2024-04-21T18:00:51.762Z,102655.84
2024-04-21T18:03:18.433Z,102663.03
2024-04-21T18:05:46.433Z,102661.84
2024-04-21T18:08:13.186Z,102666.03
2024-04-21T18:10:39.928Z,102669.06
2024-04-21T18:13:06.711Z,102672.47
2024-04-21T18:15:33.403Z,102673.22
2024-04-21T18:18:00.303Z,102674.72
2024-04-21T18:20:27.121Z,102670.16
2024-04-21T18:22:54.453Z,102682.66
2024-04-21T18:25:21.150Z,102686.81
2024-04-21T18:27:47.895Z,102686.44
2024-04-21T18:30:14.623Z,102678.09
2024-04-21T18:32:41.439Z,102679.97
2024-04-21T18:35:09.798Z,102689.06
2024-04-21T18:37:36.519Z,102692.06
2024-04-21T18:40:06.256Z,102684.50
2024-04-21T18:42:33.123Z,102684.47
2024-04-21T18:45:01.776Z,102684.47
2024-04-21T18:47:29.860Z,102695.47
2024-04-21T18:49:57.187Z,102699.97
2024-04-21T18:52:24.045Z,102695.41
2024-04-21T18:54:50.813Z,102702.56
2024-04-21T18:57:17.516Z,102713.19
2024-04-21T18:59:44.210Z,102704.09
2024-04-21T19:02:13.219Z,102709.41
2024-04-21T19:04:40.236Z,102710.13
2024-04-21T19:07:06.949Z,102704.06
2024-04-21T19:09:34.069Z,102709.34
2024-04-21T19:12:01.324Z,102710.13
2024-04-21T19:14:28.405Z,102709.38
2024-04-21T19:16:55.475Z,102720.31
2024-04-21T19:19:22.350Z,102729.38
2024-04-21T19:21:49.303Z,102732.03
2024-04-21T19:24:16.529Z,102723.28
2024-04-21T19:26:43.153Z,102727.84
2024-04-21T19:29:11.062Z,102728.94
2024-04-21T19:31:37.818Z,102728.56
2024-04-21T19:34:05.553Z,102729.72
2024-04-21T19:36:32.172Z,102730.84
2024-04-21T19:38:58.803Z,102729.31
2024-04-21T19:41:25.422Z,102735.34
2024-04-21T19:43:52.111Z,102727.72
2024-04-21T19:46:18.795Z,102720.16
2024-04-21T19:48:50.563Z,102725.41
2024-04-21T19:51:18.434Z,102731.13
2024-04-21T19:53:45.138Z,102726.53
2024-04-21T19:56:12.058Z,102734.84
2024-04-21T19:58:38.803Z,102736.00
2024-04-21T20:01:05.541Z,102733.38
2024-04-21T20:03:32.282Z,102738.25
2024-04-21T20:05:58.969Z,102743.91
2024-04-21T20:08:25.625Z,102740.81
2024-04-21T20:10:52.335Z,102742.69
2024-04-21T20:13:19.080Z,102744.56
2024-04-21T20:16:12.963Z,102739.28
2024-04-21T20:18:44.669Z,102748.69
2024-04-21T20:21:11.467Z,102736.97
2024-04-21T20:23:38.140Z,102751.69
2024-04-21T20:26:07.306Z,102753.13
2024-04-21T20:28:34.950Z,102753.47
2024-04-21T20:31:01.671Z,102749.34
2024-04-21T20:33:28.414Z,102746.28
2024-04-21T20:35:55.046Z,102752.72
2024-04-21T20:38:21.791Z,102761.81
2024-04-21T20:40:48.664Z,102763.94
2024-04-21T20:43:15.466Z,102760.13
2024-04-21T20:45:42.185Z,102763.91
2024-04-21T20:48:08.914Z,102763.13
2024-04-21T20:50:35.654Z,102763.50
2024-04-21T20:53:02.369Z,102768.75
2024-04-21T20:55:31.881Z,102775.53
2024-04-21T20:57:58.661Z,102772.47
2024-04-21T21:00:25.576Z,102774.72
2024-04-21T21:02:52.296Z,102775.09
2024-04-21T21:05:18.886Z,102775.75
2024-04-21T21:07:45.535Z,102779.94
2024-04-21T21:10:12.257Z,102782.19
2024-04-21T21:12:38.988Z,102774.25
2024-04-21T21:15:07.163Z,102789.34
2024-04-21T21:17:33.884Z,102782.88
2024-04-21T21:20:00.679Z,102781.72
2024-04-21T21:22:27.405Z,102786.66
2024-04-21T21:24:54.046Z,102784.72
2024-04-21T21:27:20.665Z,102784.28
2024-04-21T21:29:47.379Z,102787.28
2024-04-21T21:32:14.085Z,102787.28
2024-04-21T21:34:42.152Z,102780.09
2024-04-21T21:37:08.809Z,102783.50
2024-04-21T21:39:37.028Z,102781.94
2024-04-21T21:42:06.891Z,102783.00
2024-04-21T21:44:33.528Z,102787.94
2024-04-21T21:47:00.116Z,102786.47
2024-04-21T21:49:26.880Z,102781.13
2024-04-21T21:51:53.518Z,102776.97
2024-04-21T21:54:20.224Z,102781.50
2024-04-21T21:56:46.886Z,102773.16
2024-04-21T21:59:13.516Z,102772.38
2024-04-21T22:01:40.201Z,102780.31
2024-04-21T22:04:06.940Z,102777.63
2024-04-21T22:06:33.624Z,102778.41
2024-04-21T22:09:00.315Z,102776.88
2024-04-21T22:11:27.179Z,102778.00
2024-04-21T22:13:53.802Z,102774.59
2024-04-21T22:16:20.558Z,102774.63
2024-04-21T22:18:47.387Z,102781.41
2024-04-21T22:21:14.161Z,102771.59
2024-04-21T22:23:40.759Z,102776.50
2024-04-21T22:26:07.473Z,102770.47
2024-04-21T22:28:34.227Z,102781.34
2024-04-21T22:31:07.344Z,102771.13
2024-04-21T22:33:34.535Z,102780.53
2024-04-21T22:36:02.931Z,102773.75
2024-04-21T22:38:29.651Z,102776.75
2024-04-21T22:41:04.474Z,102777.16
2024-04-21T22:43:32.112Z,102771.09
2024-04-21T22:46:03.665Z,102768.06
2024-04-21T22:48:31.642Z,102768.41
2024-04-21T22:50:58.781Z,102769.13
2024-04-21T22:53:25.416Z,102769.53
2024-04-21T22:55:52.904Z,102774.41
2024-04-21T22:58:20.439Z,102766.84
2024-04-21T23:00:48.476Z,102776.94
2024-04-21T23:03:15.416Z,102769.72
2024-04-21T23:05:42.605Z,102759.91
2024-04-21T23:08:10.196Z,102767.84
2024-04-21T23:10:40.054Z,102762.13
2024-04-21T23:13:08.127Z,102756.81
2024-04-21T23:15:35.780Z,102762.81
2024-04-21T23:18:02.617Z,102760.50
2024-04-21T23:20:29.333Z,102758.63
2024-04-21T23:22:56.828Z,102758.22
2024-04-21T23:25:23.706Z,102754.41
2024-04-21T23:27:50.383Z,102753.66
2024-04-21T23:30:17.210Z,102749.84
2024-04-21T23:32:43.901Z,102753.19
2024-04-21T23:35:10.557Z,102752.78
2024-04-21T23:37:37.227Z,102756.16
2024-04-21T23:40:05.782Z,102756.47
2024-04-21T23:42:33.800Z,102756.81
2024-04-21T23:45:00.932Z,102752.28
2024-04-21T23:47:27.624Z,102753.06
2024-04-21T23:49:54.337Z,102744.38
2024-04-21T23:52:21.172Z,102747.31
2024-04-21T23:54:47.902Z,102742.03
2024-04-21T23:57:14.494Z,102742.03
2024-04-21T23:59:41.195Z,102745.78
